Time;durP1;ratioP1;P1;durP2;ratioP2;P2;SDS_P1;SDS_P2;PMS_P1;PMS_P2;Temp;Humidity;BMP_temperature;BMP_pressure;BME280_temperature;BME280_humidity;BME280_pressure;Samples;Min_cycle;Max_cycle;Signal;HPM_P1;HPM_P2
2022/07/17 00:02:08;;;;;;;2.92;1.75;;;;;;;13.13;68.58;102600.28;5109293;28;20115;-74
2022/07/17 00:04:33;;;;;;;3.55;1.65;;;;;;;13.07;69.04;102596.06;5107472;28;20052;-72
2022/07/17 00:06:59;;;;;;;2.65;1.60;;;;;;;12.98;70.41;102604.75;5088291;28;20491;-74
2022/07/17 00:09:24;;;;;;;3.20;1.85;;;;;;;12.85;71.54;102599.06;5089118;28;20508;-74
2022/07/17 00:11:49;;;;;;;2.17;1.92;;;;;;;12.85;70.33;102606.38;5086966;28;20165;-73
2022/07/17 00:14:15;;;;;;;2.15;1.20;;;;;;;12.84;70.08;102610.09;5089061;28;20032;-73
2022/07/17 00:16:40;;;;;;;4.90;1.80;;;;;;;12.81;70.09;102611.13;5089010;28;20403;-73
2022/07/17 00:19:06;;;;;;;2.90;1.80;;;;;;;12.79;70.01;102604.88;5088299;28;20149;-73
2022/07/17 00:21:32;;;;;;;3.92;2.03;;;;;;;12.76;70.21;102603.16;5087314;28;20063;-73
2022/07/17 00:23:58;;;;;;;4.13;1.83;;;;;;;12.73;70.47;102602.47;5089303;28;20044;-73
2022/07/17 00:26:23;;;;;;;3.50;1.98;;;;;;;12.72;70.37;102598.81;5096941;28;20101;-73
2022/07/17 00:28:49;;;;;;;3.10;2.20;;;;;;;12.71;69.94;102610.72;5086854;28;20168;-73
2022/07/17 00:31:14;;;;;;;2.88;1.63;;;;;;;12.65;69.46;102599.25;5088561;28;20052;-73
2022/07/17 00:33:39;;;;;;;6.20;1.80;;;;;;;12.66;69.49;102601.03;5088754;28;20040;-73
2022/07/17 00:36:05;;;;;;;3.58;1.80;;;;;;;12.66;69.92;102601.03;5094113;28;20105;-73
2022/07/17 00:38:30;;;;;;;1.90;1.50;;;;;;;12.67;69.00;102600.94;5087812;28;20097;-74
2022/07/17 00:40:57;;;;;;;1.92;1.70;;;;;;;12.65;70.19;102605.59;5086837;28;20431;-73
2022/07/17 00:43:23;;;;;;;5.60;2.15;;;;;;;12.56;70.46;102606.09;5088312;28;20066;-73
2022/07/17 00:46:00;;;;;;;3.88;2.15;;;;;;;12.46;70.69;102602.06;5086354;28;20907;-75
2022/07/17 00:48:26;;;;;;;4.03;2.13;;;;;;;12.37;71.12;102600.72;5088126;28;20024;-74
2022/07/17 00:50:52;;;;;;;5.18;1.55;;;;;;;12.32;71.35;102601.91;5087468;28;20340;-74
2022/07/17 00:53:17;;;;;;;7.30;1.90;;;;;;;12.33;70.60;102607.28;5088206;28;20043;-74
2022/07/17 00:55:46;;;;;;;3.47;1.60;;;;;;;12.32;70.51;102610.09;5086746;28;20412;-74
2022/07/17 00:58:17;;;;;;;5.07;1.83;;;;;;;12.32;69.92;102605.53;5088431;28;20494;-74
2022/07/17 01:00:43;;;;;;;7.43;1.90;;;;;;;12.39;70.14;102608.81;5086725;28;20036;-72
2022/07/17 01:03:09;;;;;;;5.55;2.50;;;;;;;12.31;70.63;102598.31;5086496;28;20473;-74
2022/07/17 01:05:34;;;;;;;3.83;1.90;;;;;;;12.27;70.86;102606.72;5086793;28;20073;-75
2022/07/17 01:08:00;;;;;;;2.70;1.77;;;;;;;12.22;70.82;102606.97;5087313;28;20556;-73
2022/07/17 01:10:25;;;;;;;3.55;1.98;;;;;;;12.19;71.44;102601.66;5090120;28;20810;-74
2022/07/17 01:12:50;;;;;;;6.38;1.77;;;;;;;12.16;71.48;102597.22;5087550;28;20036;-74
2022/07/17 01:15:16;;;;;;;3.42;2.13;;;;;;;12.13;71.49;102601.97;5086394;28;20097;-73
2022/07/17 01:17:41;;;;;;;4.00;2.00;;;;;;;12.08;71.20;102599.47;5088190;28;20026;-73
2022/07/17 01:20:09;;;;;;;2.65;1.50;;;;;;;12.03;71.67;102593.38;5068032;28;20087;-74
2022/07/17 01:22:49;;;;;;;7.13;2.38;;;;;;;12.00;71.29;102590.78;5087498;28;20036;-74
2022/07/17 01:25:16;;;;;;;3.25;1.95;;;;;;;11.96;71.42;102590.06;5087484;28;20131;-71
2022/07/17 01:27:42;;;;;;;5.60;1.80;;;;;;;11.97;70.87;102590.94;5087835;28;20035;-74
2022/07/17 01:30:08;;;;;;;3.10;1.85;;;;;;;11.92;71.60;102593.91;5085966;28;20599;-75
2022/07/17 01:32:35;;;;;;;4.13;1.77;;;;;;;11.93;70.93;102595.66;5087634;28;20040;-74
2022/07/17 01:35:02;;;;;;;4.63;2.15;;;;;;;11.91;71.75;102586.69;5087778;28;20036;-74
2022/07/17 01:37:28;;;;;;;3.70;1.92;;;;;;;11.83;72.07;102580.72;5087647;28;20028;-74
2022/07/17 01:39:54;;;;;;;5.50;2.03;;;;;;;11.76;73.17;102579.25;5086212;28;20039;-75
2022/07/17 01:42:23;;;;;;;3.55;2.60;;;;;;;11.71;73.47;102581.31;5086049;28;20044;-74
2022/07/17 01:44:49;;;;;;;5.18;2.30;;;;;;;11.65;74.01;102582.47;5086810;28;20028;-74
2022/07/17 01:47:15;;;;;;;2.35;1.60;;;;;;;11.64;72.61;102588.00;5088134;28;20031;-74
2022/07/17 01:49:45;;;;;;;3.20;2.08;;;;;;;11.60;72.58;102586.38;5089268;28;20036;-75
2022/07/17 01:52:10;;;;;;;3.03;1.98;;;;;;;11.57;72.46;102590.16;5090476;28;20559;-74
2022/07/17 01:54:36;;;;;;;6.35;2.30;;;;;;;11.54;72.40;102603.94;5091613;28;20042;-75
2022/07/17 01:57:01;;;;;;;6.78;2.05;;;;;;;11.58;72.03;102596.50;5090490;28;20020;-73
2022/07/17 01:59:26;;;;;;;5.07;2.00;;;;;;;11.59;72.25;102600.97;5091252;28;20039;-75
2022/07/17 02:01:52;;;;;;;5.13;2.22;;;;;;;11.65;72.19;102603.41;5091322;28;20071;-75
2022/07/17 02:04:17;;;;;;;3.45;2.05;;;;;;;11.63;71.91;102610.78;5091666;28;20111;-75
2022/07/17 02:06:43;;;;;;;5.75;2.38;;;;;;;11.61;71.70;102610.88;5091536;28;20040;-75
2022/07/17 02:09:08;;;;;;;4.13;2.30;;;;;;;11.61;71.59;102610.88;5091293;28;20554;-75
2022/07/17 02:11:33;;;;;;;3.13;2.22;;;;;;;11.59;73.00;102601.88;5088157;28;20059;-75
2022/07/17 02:13:59;;;;;;;4.30;2.30;;;;;;;11.57;72.19;102603.78;5091882;28;20040;-75
2022/07/17 02:16:24;;;;;;;4.55;2.45;;;;;;;11.50;73.42;102605.91;5091617;28;20040;-73
2022/07/17 02:18:49;;;;;;;4.45;2.10;;;;;;;11.44;73.86;102606.22;5089943;28;20182;-75
2022/07/17 02:21:15;;;;;;;4.72;2.35;;;;;;;11.40;72.98;102601.88;5091795;28;20036;-74
2022/07/17 02:23:40;;;;;;;6.10;2.47;;;;;;;11.35;74.15;102603.06;5091377;28;20028;-74
2022/07/17 02:26:06;;;;;;;7.65;2.90;;;;;;;11.28;74.34;102604.28;5089729;28;20028;-75
2022/07/17 02:28:31;;;;;;;3.92;2.08;;;;;;;11.25;73.50;102610.78;5090909;28;20441;-75
2022/07/17 02:30:56;;;;;;;4.80;1.98;;;;;;;11.26;73.54;102607.09;5089107;28;20067;-74
2022/07/17 02:33:22;;;;;;;5.00;2.38;;;;;;;11.23;73.70;102608.09;5091063;28;20414;-75
2022/07/17 02:35:47;;;;;;;6.18;1.95;;;;;;;11.22;72.38;102606.34;5100251;28;20167;-75
2022/07/17 02:38:13;;;;;;;6.47;2.10;;;;;;;11.15;73.43;102599.44;5111630;28;20032;-74
2022/07/17 02:40:38;;;;;;;6.03;2.40;;;;;;;11.13;73.61;102600.44;5103145;28;20435;-75
2022/07/17 02:43:04;;;;;;;8.07;2.38;;;;;;;11.08;74.01;102592.50;5107996;28;20067;-75
2022/07/17 02:45:29;;;;;;;4.35;2.13;;;;;;;11.06;74.23;102585.34;5109508;28;20023;-75
2022/07/17 02:47:54;;;;;;;2.90;2.50;;;;;;;11.01;75.29;102581.97;5111088;28;20036;-71
2022/07/17 02:50:20;;;;;;;4.45;2.30;;;;;;;10.95;74.67;102581.28;5108418;28;20150;-75
2022/07/17 02:52:46;;;;;;;5.95;2.78;;;;;;;10.91;75.72;102578.75;5091127;28;20087;-75
2022/07/17 02:55:12;;;;;;;6.47;2.85;;;;;;;10.85;75.75;102584.50;5089172;28;20703;-71
2022/07/17 02:57:38;;;;;;;4.10;2.20;;;;;;;10.77;76.14;102581.22;5089909;28;20070;-75
2022/07/17 03:00:10;;;;;;;6.65;2.58;;;;;;;10.70;76.20;102591.53;5089737;28;20044;-75
2022/07/17 03:02:35;;;;;;;3.78;1.90;;;;;;;10.69;74.58;102595.22;5090357;28;20780;-75
2022/07/17 03:05:01;;;;;;;4.63;2.30;;;;;;;10.67;74.66;102602.53;5090303;28;20046;-75
2022/07/17 03:07:26;;;;;;;4.70;2.30;;;;;;;10.65;74.67;102596.28;5089849;28;20035;-75
2022/07/17 03:09:51;;;;;;;9.27;2.97;;;;;;;10.60;75.75;102601.94;5090919;28;20036;-75
2022/07/17 03:12:17;;;;;;;5.25;3.00;;;;;;;10.55;76.01;102611.28;5088848;28;20039;-74
2022/07/17 03:14:42;;;;;;;5.03;2.53;;;;;;;10.58;74.74;102614.72;5088975;28;20452;-74
2022/07/17 03:17:07;;;;;;;3.60;2.65;;;;;;;10.60;74.28;102604.66;5090614;28;20044;-75
2022/07/17 03:19:34;;;;;;;3.92;2.35;;;;;;;10.60;74.15;102612.81;5088531;28;20020;-75
2022/07/17 03:21:59;;;;;;;7.65;2.60;;;;;;;10.54;74.22;102613.09;5090143;28;20093;-75
2022/07/17 03:24:25;;;;;;;7.60;2.63;;;;;;;10.54;73.88;102618.56;5090054;28;20047;-76
2022/07/17 03:26:51;;;;;;;5.13;2.63;;;;;;;10.56;75.04;102603.03;5088450;28;20063;-73
2022/07/17 03:29:17;;;;;;;3.92;2.55;;;;;;;10.52;76.22;102601.38;5088433;28;20024;-76
2022/07/17 03:31:43;;;;;;;6.38;2.75;;;;;;;10.44;76.10;102609.00;5089962;28;20032;-76
2022/07/17 03:34:09;;;;;;;3.83;2.58;;;;;;;10.43;75.73;102610.84;5089434;28;20031;-76
2022/07/17 03:36:34;;;;;;;6.65;2.75;;;;;;;10.40;75.70;102616.44;5088469;28;20503;-76
2022/07/17 03:38:59;;;;;;;5.07;2.97;;;;;;;10.36;75.05;102603.91;5089448;28;20534;-75
2022/07/17 03:41:25;;;;;;;5.32;2.50;;;;;;;10.37;74.70;102593.91;5094037;28;20542;-76
2022/07/17 03:43:51;;;;;;;5.03;2.38;;;;;;;10.37;75.17;102597.50;5088254;28;20119;-75
2022/07/17 03:46:16;;;;;;;4.70;2.53;;;;;;;10.34;75.08;102607.63;5089262;28;20047;-75
2022/07/17 03:48:42;;;;;;;4.72;2.38;;;;;;;10.35;75.04;102595.78;5089934;28;20122;-76
2022/07/17 03:51:07;;;;;;;7.25;2.78;;;;;;;10.35;74.86;102599.44;5089012;28;20031;-75
2022/07/17 03:53:33;;;;;;;3.35;2.30;;;;;;;10.39;74.33;102598.31;5089453;28;20508;-77
2022/07/17 03:55:58;;;;;;;5.82;2.28;;;;;;;10.45;74.24;102606.22;5088541;28;20487;-76
2022/07/17 03:58:24;;;;;;;7.30;2.40;;;;;;;10.44;74.58;102607.19;5087784;28;20024;-75
2022/07/17 04:00:49;;;;;;;4.00;2.30;;;;;;;10.45;74.46;102608.06;5093335;28;20165;-75
2022/07/17 04:03:14;;;;;;;4.72;2.83;;;;;;;10.45;74.49;102610.78;5088544;28;20107;-75
2022/07/17 04:05:40;;;;;;;3.90;2.50;;;;;;;10.43;74.70;102619.00;5087844;28;20040;-75
2022/07/17 04:08:05;;;;;;;6.50;2.63;;;;;;;10.40;75.11;102623.72;5070994;28;20035;-75
2022/07/17 04:10:30;;;;;;;5.03;2.88;;;;;;;10.39;75.27;102614.63;5088081;28;20039;-76
2022/07/17 04:12:56;;;;;;;4.03;2.90;;;;;;;10.41;75.95;102622.75;5088078;28;20093;-76
2022/07/17 04:18:05;;;;;;;6.90;2.70;;;;;;;10.35;75.36;102626.63;5089019;28;20535;-75
2022/07/17 04:20:30;;;;;;;7.50;2.85;;;;;;;10.37;75.82;102624.72;5088992;28;20157;-77
2022/07/17 04:22:57;;;;;;;6.82;3.53;;;;;;;10.34;76.75;102624.84;5087415;28;20067;-75
2022/07/17 04:25:23;;;;;;;4.55;2.95;;;;;;;10.40;75.67;102629.16;5087999;28;20048;-72
2022/07/17 04:27:48;;;;;;;4.10;3.00;;;;;;;10.47;75.69;102622.47;5088980;28;20038;-76
2022/07/17 04:30:13;;;;;;;5.63;2.90;;;;;;;10.51;75.80;102631.41;5087275;28;20061;-76
2022/07/17 04:32:39;;;;;;;4.10;2.70;;;;;;;10.54;75.25;102629.44;5089128;28;20040;-76
2022/07/17 04:35:04;;;;;;;6.25;2.80;;;;;;;10.58;75.79;102630.16;5090653;28;20533;-76
2022/07/17 04:37:30;;;;;;;9.98;3.22;;;;;;;10.60;76.16;102622.84;5101445;28;20499;-76
2022/07/17 04:39:55;;;;;;;7.50;2.58;;;;;;;10.64;76.77;102617.19;5088707;28;20081;-75
2022/07/17 04:42:21;;;;;;;4.07;2.80;;;;;;;10.69;76.42;102616.97;5088263;28;20692;-76
2022/07/17 04:44:46;;;;;;;3.95;2.88;;;;;;;10.75;75.86;102623.97;5088933;28;20449;-74
2022/07/17 04:47:11;;;;;;;4.63;3.00;;;;;;;10.79;76.04;102625.63;5087548;28;20023;-75
2022/07/17 04:49:37;;;;;;;6.47;3.33;;;;;;;10.83;76.00;102628.13;5088233;28;20185;-76
2022/07/17 04:52:02;;;;;;;4.20;2.85;;;;;;;10.91;75.56;102630.50;5084959;28;20067;-76
2022/07/17 04:54:28;;;;;;;5.40;2.95;;;;;;;10.99;75.46;102631.03;5088657;28;20103;-76
2022/07/17 04:56:53;;;;;;;5.40;2.80;;;;;;;11.02;76.24;102633.63;5085879;28;20044;-76
2022/07/17 04:59:18;;;;;;;7.70;3.08;;;;;;;11.04;76.93;102644.44;5087447;28;20036;-75
2022/07/17 05:01:44;;;;;;;6.80;3.13;;;;;;;11.09;76.35;102646.00;5087043;28;20403;-76
2022/07/17 05:04:09;;;;;;;4.82;3.05;;;;;;;11.13;76.49;102642.19;5087680;28;20501;-76
2022/07/17 05:06:34;;;;;;;6.00;2.90;;;;;;;11.23;76.10;102651.69;5086696;28;20138;-74
2022/07/17 05:09:00;;;;;;;3.88;2.45;;;;;;;11.28;76.40;102637.84;5087961;28;20020;-76
2022/07/17 05:11:25;;;;;;;6.25;3.42;;;;;;;11.31;75.91;102635.00;5086070;28;20036;-75
2022/07/17 05:13:51;;;;;;;4.68;2.70;;;;;;;11.35;76.65;102639.34;5069699;28;20402;-74
2022/07/17 05:16:16;;;;;;;5.10;2.88;;;;;;;11.41;76.41;102636.34;5086364;28;20071;-75
2022/07/17 05:18:41;;;;;;;4.05;3.13;;;;;;;11.43;75.29;102626.25;5088219;28;20501;-75
2022/07/17 05:21:07;;;;;;;8.98;3.47;;;;;;;11.45;77.22;102631.63;5087684;28;20038;-75
2022/07/17 05:23:32;;;;;;;5.10;3.30;;;;;;;11.47;77.01;102644.25;5102167;28;20032;-76
2022/07/17 05:25:58;;;;;;;6.68;3.40;;;;;;;11.53;77.41;102634.00;5085965;28;20486;-75
2022/07/17 05:28:23;;;;;;;6.07;3.20;;;;;;;11.56;77.06;102631.09;5104739;28;20034;-75
2022/07/17 05:30:48;;;;;;;8.93;3.47;;;;;;;11.63;76.85;102635.31;5101440;28;20544;-76
2022/07/17 05:33:14;;;;;;;5.82;3.47;;;;;;;11.73;76.80;102642.97;5100671;28;20556;-76
2022/07/17 05:35:39;;;;;;;5.50;3.40;;;;;;;11.79;77.05;102638.19;5086477;28;20689;-76
2022/07/17 05:38:06;;;;;;;7.32;3.50;;;;;;;11.87;77.10;102631.41;5086551;28;20119;-74
2022/07/17 05:40:31;;;;;;;10.10;3.60;;;;;;;11.93;76.81;102625.66;5084327;28;20626;-73
2022/07/17 05:42:58;;;;;;;8.05;3.70;;;;;;;11.98;77.18;102629.06;5101678;28;20031;-76
2022/07/17 05:45:23;;;;;;;7.93;4.15;;;;;;;12.04;78.43;102636.06;5106586;28;20028;-76
2022/07/17 05:47:48;;;;;;;8.77;5.07;;;;;;;12.08;78.09;102623.16;5105473;28;20042;-76
2022/07/17 05:50:14;;;;;;;9.32;4.38;;;;;;;12.14;77.21;102626.44;5103649;28;20398;-75
2022/07/17 05:52:39;;;;;;;7.85;3.45;;;;;;;12.20;76.58;102645.22;5107953;28;20059;-75
2022/07/17 05:55:05;;;;;;;8.38;4.15;;;;;;;12.21;77.96;102635.19;5107808;28;20032;-75
2022/07/17 05:57:30;;;;;;;7.22;4.10;;;;;;;12.29;77.36;102627.50;5069204;28;20047;-75
2022/07/17 05:59:56;;;;;;;5.65;3.78;;;;;;;12.38;76.32;102628.88;5085200;28;20550;-74
2022/07/17 06:02:21;;;;;;;7.18;4.22;;;;;;;12.45;77.42;102636.69;5087278;28;20461;-75
2022/07/17 06:04:46;;;;;;;9.95;4.93;;;;;;;12.51;78.39;102628.16;5087421;28;20045;-75
2022/07/17 06:07:12;;;;;;;11.43;4.35;;;;;;;12.60;78.09;102621.34;5088370;28;20231;-75
2022/07/17 06:09:37;;;;;;;11.80;6.28;;;;;;;12.66;78.71;102617.41;5092470;28;20059;-75
2022/07/17 06:12:03;;;;;;;10.95;4.78;;;;;;;12.75;78.90;102612.34;5085824;28;20103;-75
2022/07/17 06:14:28;;;;;;;8.32;5.07;;;;;;;12.82;79.98;102607.41;5086701;28;20036;-75
2022/07/17 06:16:53;;;;;;;7.53;4.22;;;;;;;12.88;77.17;102609.84;5086078;28;20088;-75
2022/07/17 06:19:19;;;;;;;7.47;4.25;;;;;;;12.93;76.96;102601.41;5085394;28;20036;-75
2022/07/17 06:21:44;;;;;;;7.85;4.00;;;;;;;12.98;78.00;102608.38;5087465;28;20048;-76
2022/07/17 06:24:09;;;;;;;10.32;4.25;;;;;;;13.05;78.10;102610.75;5087284;28;20039;-76
2022/07/17 06:26:35;;;;;;;11.80;3.92;;;;;;;13.13;78.72;102613.97;5085480;28;20120;-72
2022/07/17 06:29:00;;;;;;;9.48;4.35;;;;;;;13.18;78.00;102614.59;5087206;28;20129;-76
2022/07/17 06:31:26;;;;;;;9.07;4.45;;;;;;;13.22;76.88;102628.03;5086759;28;20386;-75
2022/07/17 06:33:51;;;;;;;6.35;3.95;;;;;;;13.30;75.91;102640.41;5087422;28;20047;-75
2022/07/17 06:36:16;;;;;;;8.82;4.55;;;;;;;13.39;76.65;102629.84;5088283;28;20362;-74
2022/07/17 06:38:42;;;;;;;8.98;4.53;;;;;;;13.45;76.85;102621.28;5089576;28;20095;-75
2022/07/17 06:41:07;;;;;;;8.20;4.30;;;;;;;13.50;76.78;102627.38;5088890;28;20024;-74
2022/07/17 06:43:33;;;;;;;7.10;3.65;;;;;;;13.55;74.85;102635.31;5089219;28;20039;-75
2022/07/17 06:45:58;;;;;;;8.85;5.00;;;;;;;13.63;75.55;102648.56;5090052;28;20382;-75
2022/07/17 06:48:24;;;;;;;7.82;4.07;;;;;;;13.71;75.86;102646.28;5089867;28;20592;-75
2022/07/17 06:50:49;;;;;;;13.25;4.28;;;;;;;13.77;75.02;102662.34;5100901;28;20035;-74
2022/07/17 06:53:14;;;;;;;7.85;4.80;;;;;;;13.85;73.12;102653.69;5090625;28;20066;-75
2022/07/17 06:55:40;;;;;;;10.85;4.68;;;;;;;13.92;72.87;102650.53;5089606;28;20058;-74
2022/07/17 06:58:06;;;;;;;5.93;4.20;;;;;;;13.99;73.41;102651.94;5088505;28;20261;-75
2022/07/17 07:00:31;;;;;;;9.02;4.00;;;;;;;14.07;74.13;102656.94;5088561;28;20093;-75
2022/07/17 07:02:57;;;;;;;9.80;3.72;;;;;;;14.12;73.21;102663.03;5088242;28;20173;-74
2022/07/17 07:05:22;;;;;;;9.15;3.83;;;;;;;14.18;73.80;102661.81;5088587;28;20584;-74
2022/07/17 07:07:48;;;;;;;9.85;5.35;;;;;;;14.24;74.34;102666.94;5090172;28;20479;-75
2022/07/17 07:10:13;;;;;;;8.13;4.05;;;;;;;14.32;72.88;102678.31;5093595;28;20088;-75
2022/07/17 07:12:39;;;;;;;8.73;3.95;;;;;;;14.39;73.13;102671.50;5087111;28;20039;-74
2022/07/17 07:15:05;;;;;;;9.40;4.30;;;;;;;14.45;73.57;102687.53;5089830;28;20074;-75
2022/07/17 07:17:31;;;;;;;11.23;4.25;;;;;;;14.51;72.01;102681.75;5088485;28;20050;-75
2022/07/17 07:19:58;;;;;;;11.95;3.72;;;;;;;14.59;69.78;102683.13;5089555;28;20012;-75
2022/07/17 07:22:23;;;;;;;9.88;3.88;;;;;;;14.71;69.70;102672.34;5089918;28;20085;-75
2022/07/17 07:24:48;;;;;;;11.32;3.42;;;;;;;14.87;70.49;102669.53;5098516;28;20035;-74
2022/07/17 07:27:14;;;;;;;12.10;4.22;;;;;;;15.16;69.90;102678.72;5093276;28;20034;-75
2022/07/17 07:29:39;;;;;;;9.55;4.10;;;;;;;15.54;68.33;102669.91;5089334;28;20107;-74
2022/07/17 07:32:05;;;;;;;7.10;3.92;;;;;;;15.67;69.16;102672.78;5089799;28;20883;-76
2022/07/17 07:34:30;;;;;;;12.93;3.58;;;;;;;15.73;68.97;102669.63;5089825;28;20455;-75
2022/07/17 07:36:55;;;;;;;11.40;3.42;;;;;;;15.79;68.34;102678.34;5089635;28;20036;-73
2022/07/17 07:39:21;;;;;;;7.85;3.55;;;;;;;15.83;67.55;102668.03;5087754;28;20043;-75
2022/07/17 07:41:46;;;;;;;6.95;3.45;;;;;;;15.84;67.48;102675.28;5088297;28;20386;-74
2022/07/17 07:44:12;;;;;;;14.50;3.42;;;;;;;15.88;67.07;102674.09;5088272;28;20040;-75
2022/07/17 07:46:37;;;;;;;9.43;3.53;;;;;;;15.89;66.81;102675.00;5089158;28;20487;-74
2022/07/17 07:49:03;;;;;;;9.88;3.85;;;;;;;15.90;66.23;102674.91;5089099;28;20032;-75
2022/07/17 07:51:29;;;;;;;9.48;3.67;;;;;;;15.93;67.40;102671.94;5089022;28;20402;-75
2022/07/17 07:53:54;;;;;;;10.85;3.38;;;;;;;16.04;67.42;102683.13;5089077;28;20418;-76
2022/07/17 07:56:20;;;;;;;6.18;3.33;;;;;;;16.12;66.68;102678.97;5086733;28;20077;-74
2022/07/17 07:58:45;;;;;;;10.05;2.72;;;;;;;16.18;66.74;102679.44;5088045;28;20044;-69
2022/07/17 08:01:11;;;;;;;7.97;2.80;;;;;;;16.24;64.30;102679.03;5108172;28;20533;-74
2022/07/17 08:03:36;;;;;;;5.68;2.53;;;;;;;16.32;65.28;102679.41;5109294;28;20039;-74
2022/07/17 08:06:01;;;;;;;5.68;2.13;;;;;;;16.46;66.14;102686.72;5105511;28;20116;-74
2022/07/17 08:08:27;;;;;;;8.95;2.45;;;;;;;16.82;66.85;102683.31;5088989;28;20031;-76
2022/07/17 08:10:52;;;;;;;6.78;2.45;;;;;;;17.13;64.19;102675.66;5086033;28;20032;-75
2022/07/17 08:13:18;;;;;;;8.95;1.88;;;;;;;17.53;62.73;102686.53;5088668;28;20114;-75
2022/07/17 08:15:43;;;;;;;8.70;2.30;;;;;;;17.83;57.41;102676.09;5098654;28;20028;-75
2022/07/17 08:18:08;;;;;;;5.55;1.98;;;;;;;18.20;59.44;102686.22;5087229;28;20335;-75
2022/07/17 08:20:34;;;;;;;4.63;2.30;;;;;;;18.70;56.47;102693.44;5088587;28;20044;-74
2022/07/17 08:22:59;;;;;;;6.15;2.17;;;;;;;19.40;58.46;102692.50;5088535;28;20115;-75
2022/07/17 08:25:24;;;;;;;7.75;2.55;;;;;;;19.89;54.03;102688.50;5086723;28;20502;-76
2022/07/17 08:27:51;;;;;;;5.13;2.00;;;;;;;20.14;55.04;102687.31;5101015;28;20030;-74
2022/07/17 08:30:16;;;;;;;8.57;2.72;;;;;;;20.60;53.80;102680.69;5107185;28;20104;-75
2022/07/17 08:32:42;;;;;;;11.05;2.10;;;;;;;21.31;53.00;102683.72;5090489;28;20447;-75
2022/07/17 08:35:08;;;;;;;9.50;2.60;;;;;;;21.99;51.39;102684.06;5086882;28;20028;-74
2022/07/17 08:37:48;;;;;;;11.52;2.58;;;;;;;22.39;51.43;102687.72;5086821;28;20020;-76
2022/07/17 08:40:28;;;;;;;8.00;2.67;;;;;;;21.89;49.52;102682.13;5087990;28;20565;-76
2022/07/17 08:42:55;;;;;;;7.38;2.05;;;;;;;22.18;49.46;102678.59;5087485;28;20062;-75
2022/07/17 08:45:20;;;;;;;8.95;2.45;;;;;;;22.75;48.74;102679.69;5087929;28;20036;-75
2022/07/17 08:47:46;;;;;;;6.75;2.30;;;;;;;23.29;47.64;102680.09;5087840;28;20063;-70
2022/07/17 08:50:12;;;;;;;10.57;2.60;;;;;;;23.68;46.86;102673.41;5086879;28;20036;-75
2022/07/17 08:52:39;;;;;;;6.28;2.13;;;;;;;23.92;46.86;102678.44;5088045;28;20047;-75
2022/07/17 08:55:10;;;;;;;8.77;2.50;;;;;;;24.09;46.58;102673.06;5087566;28;20110;-75
2022/07/17 08:57:40;;;;;;;8.55;2.80;;;;;;;24.13;44.42;102680.94;5086400;28;20050;-75
2022/07/17 09:00:07;;;;;;;7.53;2.17;;;;;;;24.05;45.15;102671.63;5087638;28;20047;-75
2022/07/17 09:02:32;;;;;;;5.38;2.55;;;;;;;24.18;43.35;102675.78;5087776;28;20127;-74
2022/07/17 09:04:58;;;;;;;9.05;2.33;;;;;;;24.64;42.88;102664.66;5087861;28;20607;-73
2022/07/17 09:07:23;;;;;;;5.93;2.15;;;;;;;24.33;40.66;102676.13;5087231;28;20048;-74
2022/07/17 09:09:52;;;;;;;5.60;1.77;;;;;;;24.59;40.75;102675.41;5085804;28;20142;-73
2022/07/17 09:12:24;;;;;;;4.20;1.90;;;;;;;24.97;42.33;102678.88;5086871;28;20119;-73
2022/07/17 09:14:50;;;;;;;3.78;1.80;;;;;;;25.36;40.30;102662.66;5087491;28;20040;-74
2022/07/17 09:17:15;;;;;;;6.55;1.90;;;;;;;25.08;38.55;102660.03;5087667;28;20024;-69
2022/07/17 09:19:45;;;;;;;7.30;2.50;;;;;;;24.74;39.86;102670.16;5089594;28;20062;-73
2022/07/17 09:22:16;;;;;;;7.05;2.08;;;;;;;24.71;39.87;102668.53;5107791;28;20502;-73
2022/07/17 09:24:49;;;;;;;5.85;2.40;;;;;;;25.03;40.77;102664.31;5105991;28;20036;-73
2022/07/17 09:27:23;;;;;;;4.20;1.90;;;;;;;25.19;40.85;102664.47;5087096;28;20115;-73
2022/07/17 09:29:57;;;;;;;5.70;1.75;;;;;;;25.40;39.05;102659.38;5087072;28;20063;-73
2022/07/17 09:32:24;;;;;;;3.97;1.67;;;;;;;25.60;41.43;102664.72;5087899;28;20119;-73
2022/07/17 09:34:53;;;;;;;5.50;2.42;;;;;;;25.03;39.32;102661.50;5097434;28;20043;-73
2022/07/17 09:37:18;;;;;;;8.85;2.65;;;;;;;25.29;39.07;102650.44;5107570;28;20111;-74
2022/07/17 09:39:43;;;;;;;6.03;2.03;;;;;;;25.68;38.59;102646.13;5107969;28;20508;-74
2022/07/17 09:42:20;;;;;;;4.07;1.83;;;;;;;26.00;37.09;102643.69;5091150;28;20036;-73
2022/07/17 09:45:01;;;;;;;4.72;2.17;;;;;;;26.41;38.56;102650.25;5087298;28;20348;-70
2022/07/17 09:47:28;;;;;;;10.52;1.77;;;;;;;26.76;38.04;102660.25;5087218;28;20157;-72
2022/07/17 09:49:55;;;;;;;5.80;2.08;;;;;;;26.73;37.02;102655.03;5084532;28;20073;-73
2022/07/17 09:52:32;;;;;;;6.70;2.47;;;;;;;26.46;34.39;102659.00;5095920;28;20020;-74
2022/07/17 09:54:59;;;;;;;7.20;1.90;;;;;;;26.63;37.07;102652.41;5107673;28;20392;-72
2022/07/17 09:57:29;;;;;;;7.20;2.00;;;;;;;27.08;38.00;102655.72;5088576;28;20040;-73
2022/07/17 09:59:56;;;;;;;5.05;1.95;;;;;;;27.52;36.85;102656.19;5087550;28;20100;-73
2022/07/17 10:02:22;;;;;;;7.85;2.10;;;;;;;27.41;34.42;102662.16;5085501;28;20212;-73
2022/07/17 10:04:48;;;;;;;4.95;2.13;;;;;;;26.81;31.87;102656.94;5086835;28;20036;-74
2022/07/17 10:07:13;;;;;;;5.68;2.00;;;;;;;26.35;34.55;102651.81;5087232;28;20042;-73
2022/07/17 10:09:39;;;;;;;8.45;1.95;;;;;;;26.73;36.37;102662.53;5087064;28;20085;-73
2022/07/17 10:12:06;;;;;;;5.95;2.70;;;;;;;27.03;34.24;102661.81;5097824;28;20076;-73
2022/07/17 10:14:33;;;;;;;3.90;1.52;;;;;;;27.28;37.26;102653.44;5089389;28;20189;-73
2022/07/17 10:17:10;;;;;;;5.35;2.05;;;;;;;27.55;35.40;102658.63;5090301;28;20438;-72
2022/07/17 10:19:47;;;;;;;4.53;2.00;;;;;;;27.28;35.99;102654.34;5090756;28;20117;-74
2022/07/17 10:22:12;;;;;;;4.80;2.13;;;;;;;27.56;34.61;102646.41;5090296;28;20028;-73
2022/07/17 10:24:49;;;;;;;6.10;2.00;;;;;;;27.76;34.44;102651.59;5098436;28;20123;-73
2022/07/17 10:27:24;;;;;;;8.10;2.25;;;;;;;27.99;35.07;102651.69;5094500;28;20042;-72
2022/07/17 10:30:27;;;;;;;6.30;1.95;;;;;;;28.50;36.23;102649.31;5089695;28;20023;-72
2022/07/17 10:32:54;;;;;;;7.47;2.00;;;;;;;28.36;35.53;102649.06;5064611;28;20402;-72
2022/07/17 10:35:20;;;;;;;4.30;1.70;;;;;;;28.45;35.80;102655.47;5108306;28;20370;-74
2022/07/17 10:37:46;;;;;;;5.53;1.85;;;;;;;27.85;32.12;102657.00;5096709;28;20043;-68
2022/07/17 10:40:14;;;;;;;6.05;1.95;;;;;;;27.28;33.21;102654.34;5110026;28;20036;-73
2022/07/17 10:42:58;;;;;;;6.93;2.33;;;;;;;27.32;34.09;102649.25;5089380;28;20499;-73
2022/07/17 10:45:33;;;;;;;6.90;2.30;;;;;;;27.06;32.43;102653.09;5089354;28;20118;-72
2022/07/17 10:48:05;;;;;;;4.93;1.88;;;;;;;27.30;33.49;102656.94;5088897;28;20060;-72
2022/07/17 10:50:42;;;;;;;7.72;2.05;;;;;;;27.14;33.05;102650.34;5087710;28;20089;-73
2022/07/17 10:53:17;;;;;;;5.28;2.25;;;;;;;27.41;33.68;102651.84;5107047;28;20043;-74
2022/07/17 10:55:48;;;;;;;8.88;2.10;;;;;;;27.23;32.67;102653.97;5088848;28;20042;-74
2022/07/17 10:58:18;;;;;;;8.63;2.13;;;;;;;27.42;33.95;102652.75;5088902;28;20040;-73
2022/07/17 11:01:05;;;;;;;6.93;1.77;;;;;;;28.12;33.29;102644.44;5089639;28;20032;-72
2022/07/17 11:03:55;;;;;;;6.80;2.00;;;;;;;28.47;33.15;102650.53;5089569;28;20063;-73
2022/07/17 11:06:23;;;;;;;5.13;1.80;;;;;;;28.72;31.17;102654.03;5087886;28;20043;-72
2022/07/17 11:09:04;;;;;;;6.25;1.45;;;;;;;28.43;29.48;102647.25;5090256;28;20115;-72
2022/07/17 11:11:39;;;;;;;6.20;1.67;;;;;;;27.92;32.42;102654.31;5088570;28;20123;-70
2022/07/17 11:14:22;;;;;;;5.78;1.90;;;;;;;28.03;32.31;102645.53;5090188;28;20101;-71
2022/07/17 11:16:55;;;;;;;6.50;2.10;;;;;;;28.47;32.12;102647.75;5089085;28;20178;-72
2022/07/17 11:19:21;;;;;;;5.35;1.63;;;;;;;28.02;30.69;102654.97;5089651;28;20424;-73
2022/07/17 11:21:47;;;;;;;8.25;1.80;;;;;;;27.56;32.59;102643.59;5089273;28;20062;-72
2022/07/17 11:24:13;;;;;;;7.72;1.80;;;;;;;27.79;31.91;102640.03;5090140;28;20039;-73
2022/07/17 11:26:38;;;;;;;5.55;2.00;;;;;;;28.38;33.01;102634.84;5088662;28;20127;-72